sensor_id;sensor_type;location;lat;lon;timestamp;P1;durP1;ratioP1;P2;durP2;ratioP2
74102;SDS011;62853;46.166;3.640;2022-12-20T00:01:42;1.75;;;1.65;;
74102;SDS011;62853;46.166;3.640;2022-12-20T00:04:09;2.28;;;1.65;;
74102;SDS011;62853;46.166;3.640;2022-12-20T00:06:35;2.58;;;1.65;;
74102;SDS011;62853;46.166;3.640;2022-12-20T00:09:01;2.40;;;1.80;;
74102;SDS011;62853;46.166;3.640;2022-12-20T00:11:29;2.78;;;2.00;;
74102;SDS011;62853;46.166;3.640;2022-12-20T00:13:54;3.70;;;1.90;;
74102;SDS011;62853;46.166;3.640;2022-12-20T00:16:25;2.78;;;2.22;;
74102;SDS011;62853;46.166;3.640;2022-12-20T00:18:52;2.85;;;1.90;;
74102;SDS011;62853;46.166;3.640;2022-12-20T00:21:19;2.72;;;1.70;;
74102;SDS011;62853;46.166;3.640;2022-12-20T00:23:45;3.40;;;1.58;;
74102;SDS011;62853;46.166;3.640;2022-12-20T00:26:14;2.28;;;1.70;;
74102;SDS011;62853;46.166;3.640;2022-12-20T00:28:41;3.15;;;1.73;;
74102;SDS011;62853;46.166;3.640;2022-12-20T00:31:07;2.65;;;1.95;;
74102;SDS011;62853;46.166;3.640;2022-12-20T00:33:34;2.25;;;1.52;;
74102;SDS011;62853;46.166;3.640;2022-12-20T00:36:01;2.30;;;1.40;;
74102;SDS011;62853;46.166;3.640;2022-12-20T00:38:27;2.40;;;1.67;;
74102;SDS011;62853;46.166;3.640;2022-12-20T00:41:09;2.53;;;1.67;;
74102;SDS011;62853;46.166;3.640;2022-12-20T00:46:02;1.85;;;1.50;;
74102;SDS011;62853;46.166;3.640;2022-12-20T00:48:28;2.53;;;1.73;;
74102;SDS011;62853;46.166;3.640;2022-12-20T00:51:02;4.65;;;1.88;;
74102;SDS011;62853;46.166;3.640;2022-12-20T00:53:29;3.33;;;1.80;;
74102;SDS011;62853;46.166;3.640;2022-12-20T00:55:55;3.22;;;1.77;;
74102;SDS011;62853;46.166;3.640;2022-12-20T00:58:20;2.85;;;1.77;;
74102;SDS011;62853;46.166;3.640;2022-12-20T01:00:46;3.22;;;2.10;;
74102;SDS011;62853;46.166;3.640;2022-12-20T01:03:12;3.22;;;2.10;;
74102;SDS011;62853;46.166;3.640;2022-12-20T01:05:38;2.42;;;2.00;;
74102;SDS011;62853;46.166;3.640;2022-12-20T01:08:03;2.45;;;1.85;;
74102;SDS011;62853;46.166;3.640;2022-12-20T01:10:29;2.58;;;1.63;;
74102;SDS011;62853;46.166;3.640;2022-12-20T01:12:55;3.17;;;1.92;;
74102;SDS011;62853;46.166;3.640;2022-12-20T01:15:20;3.08;;;2.00;;
74102;SDS011;62853;46.166;3.640;2022-12-20T01:17:46;3.53;;;2.22;;
74102;SDS011;62853;46.166;3.640;2022-12-20T01:20:12;3.35;;;2.10;;
74102;SDS011;62853;46.166;3.640;2022-12-20T01:22:37;6.00;;;2.65;;
74102;SDS011;62853;46.166;3.640;2022-12-20T01:25:03;4.72;;;2.10;;
74102;SDS011;62853;46.166;3.640;2022-12-20T01:27:29;3.00;;;1.90;;
74102;SDS011;62853;46.166;3.640;2022-12-20T01:29:55;3.72;;;2.17;;
74102;SDS011;62853;46.166;3.640;2022-12-20T01:32:20;3.45;;;2.35;;
74102;SDS011;62853;46.166;3.640;2022-12-20T01:34:46;3.10;;;2.33;;
74102;SDS011;62853;46.166;3.640;2022-12-20T01:37:11;3.85;;;2.20;;
74102;SDS011;62853;46.166;3.640;2022-12-20T01:39:37;2.58;;;2.28;;
74102;SDS011;62853;46.166;3.640;2022-12-20T01:42:03;2.58;;;2.08;;
74102;SDS011;62853;46.166;3.640;2022-12-20T01:46:54;4.60;;;2.30;;
74102;SDS011;62853;46.166;3.640;2022-12-20T01:54:34;3.10;;;2.30;;
74102;SDS011;62853;46.166;3.640;2022-12-20T01:57:05;4.18;;;2.72;;
74102;SDS011;62853;46.166;3.640;2022-12-20T01:59:33;3.58;;;2.67;;
74102;SDS011;62853;46.166;3.640;2022-12-20T02:02:02;2.95;;;2.50;;
74102;SDS011;62853;46.166;3.640;2022-12-20T02:04:31;3.70;;;2.72;;
74102;SDS011;62853;46.166;3.640;2022-12-20T02:06:56;4.85;;;2.92;;
74102;SDS011;62853;46.166;3.640;2022-12-20T02:09:23;3.50;;;2.30;;
74102;SDS011;62853;46.166;3.640;2022-12-20T02:17:17;3.22;;;2.50;;
74102;SDS011;62853;46.166;3.640;2022-12-20T02:25:51;4.25;;;2.20;;
74102;SDS011;62853;46.166;3.640;2022-12-20T02:29:01;3.58;;;2.28;;
74102;SDS011;62853;46.166;3.640;2022-12-20T02:31:49;3.03;;;2.20;;
74102;SDS011;62853;46.166;3.640;2022-12-20T02:34:25;4.07;;;2.45;;
74102;SDS011;62853;46.166;3.640;2022-12-20T02:36:51;3.97;;;2.83;;
74102;SDS011;62853;46.166;3.640;2022-12-20T02:39:18;3.97;;;2.58;;
74102;SDS011;62853;46.166;3.640;2022-12-20T02:41:49;4.15;;;2.40;;
74102;SDS011;62853;46.166;3.640;2022-12-20T02:44:18;3.53;;;1.85;;
74102;SDS011;62853;46.166;3.640;2022-12-20T02:47:07;3.88;;;2.25;;
74102;SDS011;62853;46.166;3.640;2022-12-20T02:49:37;3.55;;;2.30;;
74102;SDS011;62853;46.166;3.640;2022-12-20T02:52:08;3.92;;;1.95;;
74102;SDS011;62853;46.166;3.640;2022-12-20T02:54:36;3.63;;;2.95;;
74102;SDS011;62853;46.166;3.640;2022-12-20T03:00:01;4.65;;;2.47;;
74102;SDS011;62853;46.166;3.640;2022-12-20T03:02:31;5.13;;;2.20;;
74102;SDS011;62853;46.166;3.640;2022-12-20T03:05:18;3.28;;;2.25;;
74102;SDS011;62853;46.166;3.640;2022-12-20T03:07:45;3.53;;;2.20;;
74102;SDS011;62853;46.166;3.640;2022-12-20T03:10:11;3.35;;;1.92;;
74102;SDS011;62853;46.166;3.640;2022-12-20T03:12:36;3.38;;;2.10;;
74102;SDS011;62853;46.166;3.640;2022-12-20T03:15:01;6.07;;;2.40;;
74102;SDS011;62853;46.166;3.640;2022-12-20T03:17:27;3.55;;;2.58;;
74102;SDS011;62853;46.166;3.640;2022-12-20T03:19:52;3.20;;;2.35;;
74102;SDS011;62853;46.166;3.640;2022-12-20T03:22:18;3.80;;;2.17;;
74102;SDS011;62853;46.166;3.640;2022-12-20T03:24:43;2.30;;;1.95;;
74102;SDS011;62853;46.166;3.640;2022-12-20T03:27:08;3.42;;;2.40;;
74102;SDS011;62853;46.166;3.640;2022-12-20T03:29:34;3.67;;;2.35;;
74102;SDS011;62853;46.166;3.640;2022-12-20T03:31:59;5.07;;;2.58;;
74102;SDS011;62853;46.166;3.640;2022-12-20T03:34:24;2.20;;;1.80;;
74102;SDS011;62853;46.166;3.640;2022-12-20T03:36:50;3.22;;;1.90;;
74102;SDS011;62853;46.166;3.640;2022-12-20T03:39:15;4.55;;;2.13;;
74102;SDS011;62853;46.166;3.640;2022-12-20T03:41:40;3.65;;;2.20;;
74102;SDS011;62853;46.166;3.640;2022-12-20T03:44:06;4.22;;;2.33;;
74102;SDS011;62853;46.166;3.640;2022-12-20T03:46:31;2.70;;;2.08;;
74102;SDS011;62853;46.166;3.640;2022-12-20T03:48:56;3.97;;;1.80;;
74102;SDS011;62853;46.166;3.640;2022-12-20T03:51:22;4.97;;;2.25;;
74102;SDS011;62853;46.166;3.640;2022-12-20T03:53:47;3.53;;;2.30;;
74102;SDS011;62853;46.166;3.640;2022-12-20T03:56:12;2.67;;;1.98;;
74102;SDS011;62853;46.166;3.640;2022-12-20T03:58:38;4.03;;;2.30;;
74102;SDS011;62853;46.166;3.640;2022-12-20T04:01:15;3.38;;;2.38;;
74102;SDS011;62853;46.166;3.640;2022-12-20T04:03:42;3.45;;;2.17;;
74102;SDS011;62853;46.166;3.640;2022-12-20T04:06:07;2.88;;;1.88;;
74102;SDS011;62853;46.166;3.640;2022-12-20T04:08:32;2.35;;;1.80;;
74102;SDS011;62853;46.166;3.640;2022-12-20T04:10:58;5.03;;;2.30;;
74102;SDS011;62853;46.166;3.640;2022-12-20T04:13:48;3.50;;;2.38;;
74102;SDS011;62853;46.166;3.640;2022-12-20T04:16:16;5.22;;;2.30;;
74102;SDS011;62853;46.166;3.640;2022-12-20T04:18:43;3.13;;;2.03;;
74102;SDS011;62853;46.166;3.640;2022-12-20T04:21:08;3.92;;;2.10;;
74102;SDS011;62853;46.166;3.640;2022-12-20T04:23:35;2.38;;;1.65;;
74102;SDS011;62853;46.166;3.640;2022-12-20T04:26:02;4.22;;;2.50;;
74102;SDS011;62853;46.166;3.640;2022-12-20T04:28:30;3.13;;;1.95;;
74102;SDS011;62853;46.166;3.640;2022-12-20T04:30:56;3.85;;;2.20;;
74102;SDS011;62853;46.166;3.640;2022-12-20T04:33:22;3.70;;;2.03;;
74102;SDS011;62853;46.166;3.640;2022-12-20T04:35:47;4.72;;;2.10;;
74102;SDS011;62853;46.166;3.640;2022-12-20T04:38:13;3.30;;;1.90;;
74102;SDS011;62853;46.166;3.640;2022-12-20T04:40:39;4.53;;;2.20;;
74102;SDS011;62853;46.166;3.640;2022-12-20T04:43:04;3.30;;;1.95;;
74102;SDS011;62853;46.166;3.640;2022-12-20T04:45:30;3.45;;;1.70;;
74102;SDS011;62853;46.166;3.640;2022-12-20T04:47:55;1.63;;;1.38;;
74102;SDS011;62853;46.166;3.640;2022-12-20T04:50:21;2.95;;;2.30;;
74102;SDS011;62853;46.166;3.640;2022-12-20T04:52:46;3.40;;;2.05;;
74102;SDS011;62853;46.166;3.640;2022-12-20T04:55:30;3.17;;;2.05;;
74102;SDS011;62853;46.166;3.640;2022-12-20T04:57:55;3.35;;;1.90;;
74102;SDS011;62853;46.166;3.640;2022-12-20T05:00:21;3.50;;;2.13;;
74102;SDS011;62853;46.166;3.640;2022-12-20T05:02:46;2.97;;;2.40;;
74102;SDS011;62853;46.166;3.640;2022-12-20T05:05:12;4.15;;;1.95;;
74102;SDS011;62853;46.166;3.640;2022-12-20T05:07:38;2.58;;;1.83;;
74102;SDS011;62853;46.166;3.640;2022-12-20T05:10:03;4.32;;;2.38;;
74102;SDS011;62853;46.166;3.640;2022-12-20T05:12:29;3.72;;;1.92;;
74102;SDS011;62853;46.166;3.640;2022-12-20T05:14:54;4.15;;;1.80;;
74102;SDS011;62853;46.166;3.640;2022-12-20T05:17:20;3.67;;;2.00;;
74102;SDS011;62853;46.166;3.640;2022-12-20T05:19:45;4.15;;;2.17;;
74102;SDS011;62853;46.166;3.640;2022-12-20T05:22:11;2.42;;;1.88;;
74102;SDS011;62853;46.166;3.640;2022-12-20T05:24:55;3.63;;;2.05;;
74102;SDS011;62853;46.166;3.640;2022-12-20T05:27:39;3.50;;;2.00;;
74102;SDS011;62853;46.166;3.640;2022-12-20T05:30:04;3.40;;;2.13;;
74102;SDS011;62853;46.166;3.640;2022-12-20T05:32:30;5.10;;;2.70;;
74102;SDS011;62853;46.166;3.640;2022-12-20T05:34:55;4.22;;;2.50;;
74102;SDS011;62853;46.166;3.640;2022-12-20T05:37:21;3.70;;;2.15;;
74102;SDS011;62853;46.166;3.640;2022-12-20T05:39:46;3.97;;;2.28;;
74102;SDS011;62853;46.166;3.640;2022-12-20T05:42:11;2.25;;;1.58;;
74102;SDS011;62853;46.166;3.640;2022-12-20T05:44:37;3.33;;;1.70;;
74102;SDS011;62853;46.166;3.640;2022-12-20T05:47:02;3.00;;;1.63;;
74102;SDS011;62853;46.166;3.640;2022-12-20T05:49:27;3.58;;;1.75;;
74102;SDS011;62853;46.166;3.640;2022-12-20T05:51:53;1.98;;;1.70;;
74102;SDS011;62853;46.166;3.640;2022-12-20T05:54:18;6.18;;;2.38;;
74102;SDS011;62853;46.166;3.640;2022-12-20T05:56:44;3.08;;;1.85;;
74102;SDS011;62853;46.166;3.640;2022-12-20T05:59:09;2.88;;;1.98;;
74102;SDS011;62853;46.166;3.640;2022-12-20T06:01:34;2.97;;;1.73;;
74102;SDS011;62853;46.166;3.640;2022-12-20T06:04:00;3.05;;;1.88;;
74102;SDS011;62853;46.166;3.640;2022-12-20T06:06:26;2.90;;;2.08;;
74102;SDS011;62853;46.166;3.640;2022-12-20T06:08:51;2.85;;;2.10;;
74102;SDS011;62853;46.166;3.640;2022-12-20T06:11:16;4.93;;;1.95;;
74102;SDS011;62853;46.166;3.640;2022-12-20T06:13:42;5.70;;;2.15;;
74102;SDS011;62853;46.166;3.640;2022-12-20T06:16:07;2.55;;;1.60;;
74102;SDS011;62853;46.166;3.640;2022-12-20T06:18:32;3.65;;;1.80;;
74102;SDS011;62853;46.166;3.640;2022-12-20T06:20:58;4.60;;;2.08;;
74102;SDS011;62853;46.166;3.640;2022-12-20T06:23:23;2.72;;;2.08;;
74102;SDS011;62853;46.166;3.640;2022-12-20T06:25:49;2.72;;;1.98;;
74102;SDS011;62853;46.166;3.640;2022-12-20T06:28:14;2.33;;;1.83;;
74102;SDS011;62853;46.166;3.640;2022-12-20T06:30:50;4.00;;;1.83;;
74102;SDS011;62853;46.166;3.640;2022-12-20T06:33:19;2.13;;;1.65;;
74102;SDS011;62853;46.166;3.640;2022-12-20T06:35:45;5.55;;;2.10;;
74102;SDS011;62853;46.166;3.640;2022-12-20T06:38:10;2.17;;;1.52;;
74102;SDS011;62853;46.166;3.640;2022-12-20T06:40:36;4.07;;;1.80;;
74102;SDS011;62853;46.166;3.640;2022-12-20T06:43:02;3.03;;;1.35;;
74102;SDS011;62853;46.166;3.640;2022-12-20T06:45:27;4.72;;;2.00;;
74102;SDS011;62853;46.166;3.640;2022-12-20T06:47:52;2.95;;;1.85;;
74102;SDS011;62853;46.166;3.640;2022-12-20T06:50:18;3.05;;;1.92;;
74102;SDS011;62853;46.166;3.640;2022-12-20T06:52:43;2.90;;;1.67;;
74102;SDS011;62853;46.166;3.640;2022-12-20T06:55:08;3.63;;;1.63;;
74102;SDS011;62853;46.166;3.640;2022-12-20T06:57:34;1.55;;;1.30;;
74102;SDS011;62853;46.166;3.640;2022-12-20T06:59:59;2.33;;;1.65;;
74102;SDS011;62853;46.166;3.640;2022-12-20T07:02:25;1.70;;;1.48;;
74102;SDS011;62853;46.166;3.640;2022-12-20T07:04:50;3.50;;;2.00;;
74102;SDS011;62853;46.166;3.640;2022-12-20T07:07:16;3.22;;;1.45;;
74102;SDS011;62853;46.166;3.640;2022-12-20T07:09:41;1.90;;;1.60;;
74102;SDS011;62853;46.166;3.640;2022-12-20T07:12:07;2.40;;;1.63;;
74102;SDS011;62853;46.166;3.640;2022-12-20T07:14:33;2.78;;;1.50;;
74102;SDS011;62853;46.166;3.640;2022-12-20T07:16:58;1.90;;;1.30;;
74102;SDS011;62853;46.166;3.640;2022-12-20T07:19:24;1.83;;;1.30;;
74102;SDS011;62853;46.166;3.640;2022-12-20T07:21:50;3.58;;;1.70;;
74102;SDS011;62853;46.166;3.640;2022-12-20T07:24:15;3.75;;;1.40;;
74102;SDS011;62853;46.166;3.640;2022-12-20T07:26:42;2.67;;;1.60;;
74102;SDS011;62853;46.166;3.640;2022-12-20T07:29:09;2.55;;;1.60;;
74102;SDS011;62853;46.166;3.640;2022-12-20T07:31:34;4.82;;;1.60;;
74102;SDS011;62853;46.166;3.640;2022-12-20T07:34:00;1.63;;;1.40;;
74102;SDS011;62853;46.166;3.640;2022-12-20T07:36:25;2.08;;;1.45;;
74102;SDS011;62853;46.166;3.640;2022-12-20T07:38:50;3.60;;;1.88;;
74102;SDS011;62853;46.166;3.640;2022-12-20T07:41:16;2.28;;;1.50;;
74102;SDS011;62853;46.166;3.640;2022-12-20T07:43:43;5.22;;;1.50;;
74102;SDS011;62853;46.166;3.640;2022-12-20T07:46:08;3.15;;;1.63;;
74102;SDS011;62853;46.166;3.640;2022-12-20T07:48:35;4.03;;;1.52;;
74102;SDS011;62853;46.166;3.640;2022-12-20T07:51:02;3.05;;;1.40;;
74102;SDS011;62853;46.166;3.640;2022-12-20T07:53:33;3.70;;;1.60;;
74102;SDS011;62853;46.166;3.640;2022-12-20T07:56:02;2.42;;;1.83;;
74102;SDS011;62853;46.166;3.640;2022-12-20T07:58:31;3.25;;;1.33;;
74102;SDS011;62853;46.166;3.640;2022-12-20T08:00:59;2.03;;;1.33;;
74102;SDS011;62853;46.166;3.640;2022-12-20T08:03:34;4.03;;;1.45;;
74102;SDS011;62853;46.166;3.640;2022-12-20T08:06:02;2.35;;;1.25;;
74102;SDS011;62853;46.166;3.640;2022-12-20T08:08:33;2.47;;;1.50;;
74102;SDS011;62853;46.166;3.640;2022-12-20T08:11:02;4.25;;;1.52;;
74102;SDS011;62853;46.166;3.640;2022-12-20T08:13:31;2.80;;;1.48;;
74102;SDS011;62853;46.166;3.640;2022-12-20T08:15:57;1.85;;;1.45;;
74102;SDS011;62853;46.166;3.640;2022-12-20T08:18:22;4.78;;;1.70;;
74102;SDS011;62853;46.166;3.640;2022-12-20T08:20:48;2.70;;;1.60;;
74102;SDS011;62853;46.166;3.640;2022-12-20T08:23:13;2.17;;;1.30;;
74102;SDS011;62853;46.166;3.640;2022-12-20T08:25:39;2.88;;;1.70;;
74102;SDS011;62853;46.166;3.640;2022-12-20T08:28:04;2.78;;;1.50;;
74102;SDS011;62853;46.166;3.640;2022-12-20T08:30:30;2.35;;;1.50;;
74102;SDS011;62853;46.166;3.640;2022-12-20T08:32:55;2.42;;;1.60;;
74102;SDS011;62853;46.166;3.640;2022-12-20T08:35:21;3.17;;;1.90;;
74102;SDS011;62853;46.166;3.640;2022-12-20T08:37:46;2.55;;;1.42;;
74102;SDS011;62853;46.166;3.640;2022-12-20T08:40:12;7.05;;;1.98;;
74102;SDS011;62853;46.166;3.640;2022-12-20T08:42:38;2.03;;;1.40;;
74102;SDS011;62853;46.166;3.640;2022-12-20T08:45:04;3.38;;;1.80;;
74102;SDS011;62853;46.166;3.640;2022-12-20T08:47:30;2.67;;;1.63;;
74102;SDS011;62853;46.166;3.640;2022-12-20T08:49:55;4.22;;;1.70;;
74102;SDS011;62853;46.166;3.640;2022-12-20T08:52:20;2.75;;;1.80;;
74102;SDS011;62853;46.166;3.640;2022-12-20T08:54:46;4.72;;;2.00;;
74102;SDS011;62853;46.166;3.640;2022-12-20T08:57:11;3.63;;;1.67;;
74102;SDS011;62853;46.166;3.640;2022-12-20T08:59:37;2.20;;;1.52;;
74102;SDS011;62853;46.166;3.640;2022-12-20T09:02:02;3.35;;;1.95;;
74102;SDS011;62853;46.166;3.640;2022-12-20T09:04:27;3.78;;;2.25;;
74102;SDS011;62853;46.166;3.640;2022-12-20T09:06:53;3.40;;;1.90;;
74102;SDS011;62853;46.166;3.640;2022-12-20T09:09:18;2.50;;;1.70;;
74102;SDS011;62853;46.166;3.640;2022-12-20T09:11:44;3.70;;;1.88;;
74102;SDS011;62853;46.166;3.640;2022-12-20T09:14:09;2.88;;;1.88;;
74102;SDS011;62853;46.166;3.640;2022-12-20T09:16:34;5.22;;;1.80;;
74102;SDS011;62853;46.166;3.640;2022-12-20T09:19:00;3.65;;;2.10;;
74102;SDS011;62853;46.166;3.640;2022-12-20T09:21:27;2.13;;;1.45;;
74102;SDS011;62853;46.166;3.640;2022-12-20T09:23:54;2.50;;;1.73;;
74102;SDS011;62853;46.166;3.640;2022-12-20T09:26:20;2.25;;;1.70;;
74102;SDS011;62853;46.166;3.640;2022-12-20T09:28:47;2.88;;;2.20;;
74102;SDS011;62853;46.166;3.640;2022-12-20T09:31:15;4.22;;;1.85;;
74102;SDS011;62853;46.166;3.640;2022-12-20T09:33:42;2.78;;;1.80;;
74102;SDS011;62853;46.166;3.640;2022-12-20T09:36:13;1.60;;;1.40;;
74102;SDS011;62853;46.166;3.640;2022-12-20T09:38:41;3.25;;;1.50;;
74102;SDS011;62853;46.166;3.640;2022-12-20T09:41:08;3.17;;;1.67;;
74102;SDS011;62853;46.166;3.640;2022-12-20T09:43:45;2.33;;;1.70;;
74102;SDS011;62853;46.166;3.640;2022-12-20T09:46:10;3.15;;;1.80;;
74102;SDS011;62853;46.166;3.640;2022-12-20T09:48:38;2.90;;;1.70;;
74102;SDS011;62853;46.166;3.640;2022-12-20T09:54:05;2.33;;;1.80;;
74102;SDS011;62853;46.166;3.640;2022-12-20T09:59:25;4.07;;;1.77;;
74102;SDS011;62853;46.166;3.640;2022-12-20T10:01:52;2.85;;;1.80;;
74102;SDS011;62853;46.166;3.640;2022-12-20T10:04:21;4.40;;;1.35;;
74102;SDS011;62853;46.166;3.640;2022-12-20T10:06:52;4.55;;;2.30;;
74102;SDS011;62853;46.166;3.640;2022-12-20T10:12:19;3.15;;;2.13;;
74102;SDS011;62853;46.166;3.640;2022-12-20T10:23:13;2.08;;;1.40;;
74102;SDS011;62853;46.166;3.640;2022-12-20T10:25:52;3.88;;;1.88;;
74102;SDS011;62853;46.166;3.640;2022-12-20T10:28:19;3.50;;;1.77;;
74102;SDS011;62853;46.166;3.640;2022-12-20T10:30:53;2.40;;;1.60;;
74102;SDS011;62853;46.166;3.640;2022-12-20T10:33:23;2.85;;;1.55;;
74102;SDS011;62853;46.166;3.640;2022-12-20T10:35:51;2.28;;;1.70;;
74102;SDS011;62853;46.166;3.640;2022-12-20T10:38:17;3.08;;;2.00;;
74102;SDS011;62853;46.166;3.640;2022-12-20T10:43:23;2.33;;;1.67;;
74102;SDS011;62853;46.166;3.640;2022-12-20T10:46:00;2.75;;;2.05;;
74102;SDS011;62853;46.166;3.640;2022-12-20T10:50:56;3.72;;;2.00;;
74102;SDS011;62853;46.166;3.640;2022-12-20T10:53:23;3.03;;;1.90;;
74102;SDS011;62853;46.166;3.640;2022-12-20T10:55:49;3.17;;;2.08;;
74102;SDS011;62853;46.166;3.640;2022-12-20T11:00:51;6.70;;;2.13;;
74102;SDS011;62853;46.166;3.640;2022-12-20T11:03:49;3.47;;;2.20;;
74102;SDS011;62853;46.166;3.640;2022-12-20T11:06:20;4.43;;;2.30;;
74102;SDS011;62853;46.166;3.640;2022-12-20T11:08:47;3.88;;;1.98;;
74102;SDS011;62853;46.166;3.640;2022-12-20T11:13:44;2.47;;;2.10;;
74102;SDS011;62853;46.166;3.640;2022-12-20T11:16:23;2.88;;;1.90;;
74102;SDS011;62853;46.166;3.640;2022-12-20T11:18:59;2.85;;;2.10;;
74102;SDS011;62853;46.166;3.640;2022-12-20T11:35:17;5.20;;;2.03;;
74102;SDS011;62853;46.166;3.640;2022-12-20T11:40:30;3.42;;;2.00;;
74102;SDS011;62853;46.166;3.640;2022-12-20T11:45:29;3.90;;;2.33;;
74102;SDS011;62853;46.166;3.640;2022-12-20T11:55:52;4.85;;;3.13;;
74102;SDS011;62853;46.166;3.640;2022-12-20T11:58:24;3.15;;;2.60;;
74102;SDS011;62853;46.166;3.640;2022-12-20T12:01:00;4.47;;;2.58;;
74102;SDS011;62853;46.166;3.640;2022-12-20T12:03:34;4.25;;;2.25;;
74102;SDS011;62853;46.166;3.640;2022-12-20T12:08:43;2.95;;;2.58;;
74102;SDS011;62853;46.166;3.640;2022-12-20T12:11:21;3.58;;;2.88;;
74102;SDS011;62853;46.166;3.640;2022-12-20T12:13:48;6.38;;;3.08;;
74102;SDS011;62853;46.166;3.640;2022-12-20T12:16:17;3.35;;;2.92;;
74102;SDS011;62853;46.166;3.640;2022-12-20T12:23:50;3.60;;;2.65;;
74102;SDS011;62853;46.166;3.640;2022-12-20T12:26:24;4.03;;;2.80;;
74102;SDS011;62853;46.166;3.640;2022-12-20T12:28:53;3.78;;;2.45;;
74102;SDS011;62853;46.166;3.640;2022-12-20T12:31:22;4.00;;;2.72;;
74102;SDS011;62853;46.166;3.640;2022-12-20T12:34:06;7.65;;;3.28;;
74102;SDS011;62853;46.166;3.640;2022-12-20T12:39:29;4.95;;;2.70;;
74102;SDS011;62853;46.166;3.640;2022-12-20T12:45:28;4.10;;;2.80;;
74102;SDS011;62853;46.166;3.640;2022-12-20T12:48:03;6.05;;;2.92;;
74102;SDS011;62853;46.166;3.640;2022-12-20T12:50:36;7.50;;;3.42;;
74102;SDS011;62853;46.166;3.640;2022-12-20T12:53:07;5.57;;;3.45;;
74102;SDS011;62853;46.166;3.640;2022-12-20T12:55:38;3.38;;;3.00;;
74102;SDS011;62853;46.166;3.640;2022-12-20T12:58:12;3.95;;;3.30;;
74102;SDS011;62853;46.166;3.640;2022-12-20T13:03:15;6.40;;;3.65;;
74102;SDS011;62853;46.166;3.640;2022-12-20T13:05:59;3.88;;;2.83;;
74102;SDS011;62853;46.166;3.640;2022-12-20T13:11:34;4.50;;;3.15;;
74102;SDS011;62853;46.166;3.640;2022-12-20T13:16:44;6.93;;;3.60;;
74102;SDS011;62853;46.166;3.640;2022-12-20T13:19:17;7.38;;;3.63;;
74102;SDS011;62853;46.166;3.640;2022-12-20T13:21:46;5.85;;;3.30;;
74102;SDS011;62853;46.166;3.640;2022-12-20T13:27:12;5.53;;;3.30;;
74102;SDS011;62853;46.166;3.640;2022-12-20T13:29:51;5.35;;;3.00;;
74102;SDS011;62853;46.166;3.640;2022-12-20T13:37:51;6.82;;;4.60;;
74102;SDS011;62853;46.166;3.640;2022-12-20T13:40:37;5.72;;;3.92;;
74102;SDS011;62853;46.166;3.640;2022-12-20T13:43:09;4.47;;;2.60;;
74102;SDS011;62853;46.166;3.640;2022-12-20T13:48:54;4.18;;;3.17;;
74102;SDS011;62853;46.166;3.640;2022-12-20T13:51:22;7.63;;;4.00;;
74102;SDS011;62853;46.166;3.640;2022-12-20T13:53:53;5.18;;;3.45;;
74102;SDS011;62853;46.166;3.640;2022-12-20T13:58:56;5.05;;;3.65;;
74102;SDS011;62853;46.166;3.640;2022-12-20T14:01:27;7.22;;;3.42;;
74102;SDS011;62853;46.166;3.640;2022-12-20T14:03:53;5.97;;;3.42;;
74102;SDS011;62853;46.166;3.640;2022-12-20T14:06:19;6.35;;;3.28;;
74102;SDS011;62853;46.166;3.640;2022-12-20T14:08:47;4.60;;;3.50;;
74102;SDS011;62853;46.166;3.640;2022-12-20T14:11:15;6.05;;;3.13;;
74102;SDS011;62853;46.166;3.640;2022-12-20T14:13:49;5.70;;;3.25;;
74102;SDS011;62853;46.166;3.640;2022-12-20T14:16:19;8.68;;;3.88;;
74102;SDS011;62853;46.166;3.640;2022-12-20T14:21:29;6.40;;;3.78;;
74102;SDS011;62853;46.166;3.640;2022-12-20T14:23:57;8.45;;;4.07;;
74102;SDS011;62853;46.166;3.640;2022-12-20T14:26:29;6.70;;;3.72;;
74102;SDS011;62853;46.166;3.640;2022-12-20T14:29:00;4.35;;;3.40;;
74102;SDS011;62853;46.166;3.640;2022-12-20T14:31:30;4.70;;;3.50;;
74102;SDS011;62853;46.166;3.640;2022-12-20T14:34:24;7.40;;;4.18;;
74102;SDS011;62853;46.166;3.640;2022-12-20T14:36:50;6.40;;;3.70;;
74102;SDS011;62853;46.166;3.640;2022-12-20T14:39:23;5.68;;;4.00;;
74102;SDS011;62853;46.166;3.640;2022-12-20T14:41:54;5.28;;;3.35;;
74102;SDS011;62853;46.166;3.640;2022-12-20T14:44:22;5.03;;;3.80;;
74102;SDS011;62853;46.166;3.640;2022-12-20T14:46:49;7.00;;;4.18;;
74102;SDS011;62853;46.166;3.640;2022-12-20T14:49:19;6.90;;;4.72;;
74102;SDS011;62853;46.166;3.640;2022-12-20T14:54:35;5.53;;;3.97;;
74102;SDS011;62853;46.166;3.640;2022-12-20T14:57:54;5.28;;;3.20;;
74102;SDS011;62853;46.166;3.640;2022-12-20T15:00:11;5.63;;;3.35;;
74102;SDS011;62853;46.166;3.640;2022-12-20T15:08:13;6.78;;;3.78;;
74102;SDS011;62853;46.166;3.640;2022-12-20T15:11:00;5.90;;;3.70;;
74102;SDS011;62853;46.166;3.640;2022-12-20T15:13:38;7.10;;;5.13;;
74102;SDS011;62853;46.166;3.640;2022-12-20T15:16:13;5.55;;;3.70;;
74102;SDS011;62853;46.166;3.640;2022-12-20T15:18:53;6.30;;;4.00;;
74102;SDS011;62853;46.166;3.640;2022-12-20T15:21:26;7.60;;;4.70;;
74102;SDS011;62853;46.166;3.640;2022-12-20T15:23:55;4.72;;;3.50;;
74102;SDS011;62853;46.166;3.640;2022-12-20T15:26:23;4.70;;;3.30;;
74102;SDS011;62853;46.166;3.640;2022-12-20T15:28:50;4.25;;;3.85;;
74102;SDS011;62853;46.166;3.640;2022-12-20T15:31:17;6.55;;;4.22;;
74102;SDS011;62853;46.166;3.640;2022-12-20T15:33:44;4.85;;;3.67;;
74102;SDS011;62853;46.166;3.640;2022-12-20T15:36:15;5.78;;;4.35;;
74102;SDS011;62853;46.166;3.640;2022-12-20T15:38:42;6.85;;;4.70;;
74102;SDS011;62853;46.166;3.640;2022-12-20T15:41:10;5.00;;;3.92;;
74102;SDS011;62853;46.166;3.640;2022-12-20T15:43:47;5.25;;;3.60;;
74102;SDS011;62853;46.166;3.640;2022-12-20T15:46:16;5.30;;;3.83;;
74102;SDS011;62853;46.166;3.640;2022-12-20T15:48:41;7.43;;;4.15;;
74102;SDS011;62853;46.166;3.640;2022-12-20T15:51:12;5.50;;;4.22;;
74102;SDS011;62853;46.166;3.640;2022-12-20T15:53:45;5.45;;;4.30;;
74102;SDS011;62853;46.166;3.640;2022-12-20T15:56:19;7.53;;;4.47;;
74102;SDS011;62853;46.166;3.640;2022-12-20T15:58:47;6.50;;;4.72;;
74102;SDS011;62853;46.166;3.640;2022-12-20T16:01:15;7.32;;;4.90;;
74102;SDS011;62853;46.166;3.640;2022-12-20T16:03:44;5.10;;;4.40;;
74102;SDS011;62853;46.166;3.640;2022-12-20T16:06:10;5.43;;;4.50;;
74102;SDS011;62853;46.166;3.640;2022-12-20T16:08:37;7.25;;;4.55;;
74102;SDS011;62853;46.166;3.640;2022-12-20T16:11:03;6.63;;;4.65;;
74102;SDS011;62853;46.166;3.640;2022-12-20T16:13:30;6.65;;;5.00;;
74102;SDS011;62853;46.166;3.640;2022-12-20T16:15:55;6.43;;;4.90;;
74102;SDS011;62853;46.166;3.640;2022-12-20T16:18:21;10.40;;;4.65;;
74102;SDS011;62853;46.166;3.640;2022-12-20T16:20:46;9.10;;;6.07;;
74102;SDS011;62853;46.166;3.640;2022-12-20T16:23:15;8.05;;;5.93;;
74102;SDS011;62853;46.166;3.640;2022-12-20T16:25:44;7.65;;;5.78;;
74102;SDS011;62853;46.166;3.640;2022-12-20T16:28:10;7.60;;;5.28;;
74102;SDS011;62853;46.166;3.640;2022-12-20T16:30:35;9.02;;;5.28;;
74102;SDS011;62853;46.166;3.640;2022-12-20T16:33:00;10.25;;;6.45;;
74102;SDS011;62853;46.166;3.640;2022-12-20T16:35:27;6.10;;;4.70;;
74102;SDS011;62853;46.166;3.640;2022-12-20T16:37:55;5.63;;;4.25;;
74102;SDS011;62853;46.166;3.640;2022-12-20T16:40:23;6.07;;;4.88;;
74102;SDS011;62853;46.166;3.640;2022-12-20T16:42:51;7.63;;;5.78;;
74102;SDS011;62853;46.166;3.640;2022-12-20T16:45:22;8.00;;;5.97;;
74102;SDS011;62853;46.166;3.640;2022-12-20T16:47:49;11.03;;;7.20;;
74102;SDS011;62853;46.166;3.640;2022-12-20T16:50:17;6.85;;;5.80;;
74102;SDS011;62853;46.166;3.640;2022-12-20T16:52:43;8.05;;;5.45;;
74102;SDS011;62853;46.166;3.640;2022-12-20T16:55:12;6.05;;;5.13;;
74102;SDS011;62853;46.166;3.640;2022-12-20T16:57:39;6.03;;;5.10;;
74102;SDS011;62853;46.166;3.640;2022-12-20T17:00:05;6.90;;;5.57;;
74102;SDS011;62853;46.166;3.640;2022-12-20T17:02:32;6.97;;;5.50;;